NY/NJ Local METAR Reports

No Warnings, Watches, or Advisories
KNYC - NYC/Central Park, NY, USA
Distance from station: NE 4mi, 7km
Updated: 11/29/2021 8:51am
Overcast
Overcast
 Wind from varies
Wind: varies 5 mph , 7 km/h
Temperature: 37°F , 3°C
Wind Chill: 33°F , 1°C
Dew Point: 27°F , -3°C
Humidity: 65%
Barometer: 29.91 inHg , 1012.9 hPa
Clouds: Overcast
Visibility: 10 miles , 16 km
Cloud details: Overcast 5500 ft
2021/11/29 13:51 KNYC 291351Z AUTO VRB04KT 10SM OVC055 03/M03 A2991 RMK AO2 SLP121 T00331033 $
KEWR - Newark, NJ, USA
Distance from station: WSW 8mi, 13km
Updated: 11/29/2021 8:51am
Few Clouds
Few Clouds
 Wind from WNW
Wind: WNW 10 mph , 17 km/h
Temperature: 41°F , 5°C
Wind Chill: 35°F , 2°C
Dew Point: 27°F , -3°C
Humidity: 57%
Barometer: 29.90 inHg , 1012.5 hPa
Clouds: Few Clouds
Visibility: 10 miles , 16 km
Cloud details: Few Clouds 4500 ft
Few Clouds 11000 ft
2021/11/29 13:51 KEWR 291351Z 29009KT 10SM FEW045 FEW110 05/M03 A2990 RMK AO2 SLP125 T00501028
 
KLGA - NYC/La Guardia, NY, USA
Distance from station: ENE 8mi, 13km
Updated: 11/29/2021 8:51am
Few Clouds
Few Clouds
 Wind from NW
Wind: NW 16 mph , 26 km/h
Temperature: 41°F , 5°C
Wind Chill: 33°F , 1°C
Dew Point: 27°F , -3°C
Humidity: 57%
Barometer: 29.88 inHg , 1011.9 hPa
Clouds: Few Clouds
Visibility: 10 miles , 16 km
Cloud details: Few Clouds 4300 ft
Few Clouds 11000 ft
2021/11/29 13:51 KLGA 291351Z 32014KT 10SM FEW043 FEW110 05/M03 A2988 RMK AO2 SLP119 T00501028
KTEB - Teterboro, NJ, USA
Distance from station: N 9mi, 14km
Updated: 11/29/2021 8:51am
Partly cloudy
Partly cloudy
 Wind from NW
Wind: NW 10 mph , 17 km/h
Temperature: 37°F , 3°C
Wind Chill: 30°F , -1°C
Dew Point: 27°F , -3°C
Humidity: 65%
Barometer: 29.89 inHg , 1012.2 hPa
Clouds: Partly cloudy
Visibility: 10 miles , 16 km
Cloud details: Partly cloudy 6500 ft
2021/11/29 13:51 KTEB 291351Z 31009KT 10SM SCT065 03/M03 A2989 RMK AO2 SLP120 T00281028
 
KJFK - NYC/Jfk Arpt, NY, USA
Distance from station: ESE 16mi, 25km
Updated: 11/29/2021 8:51am
Partly cloudy
Partly cloudy
 Wind from NW
Wind: NW 14 mph , 22 km/h
Temperature: 39°F , 4°C
Wind Chill: 31°F , -1°C
Dew Point: 27°F , -3°C
Humidity: 61%
Barometer: 29.90 inHg , 1012.5 hPa
Clouds: Partly cloudy
Visibility: 10 miles , 16 km
Cloud details: Few Clouds 3800 ft
Partly cloudy 12000 ft
Partly cloudy 25000 ft
2021/11/29 13:51 KJFK 291351Z 31012KT 10SM FEW038 SCT120 SCT250 04/M03 A2990 RMK AO2 SLP124 T00391033
KCDW - Caldwell, NJ, USA
Distance from station: NW 16mi, 26km
Updated: 11/29/2021 8:53am
Mostly cloudy
Mostly cloudy
 Wind from NW
Wind: NW 6 mph , 9 km/h
Temperature: 39°F , 4°C
Wind Chill: 35°F , 2°C
Dew Point: 25°F , -4°C
Humidity: 56%
Barometer: 29.90 inHg , 1012.5 hPa
Clouds: Mostly cloudy
Visibility: 10 miles , 16 km
Cloud details: Mostly cloudy 6000 ft
2021/11/29 13:53 KCDW 291353Z 32005KT 10SM BKN060 04/M04 A2990 RMK AO2 SLP132 T00441039
 
KMMU - Morristown Muni, NJ, USA
Distance from station: W 20mi, 33km
Updated: 11/29/2021 8:45am
Partly cloudy
Partly cloudy
 Wind from calm
Wind: Calm
Temperature: 37°F , 3°C
Dew Point: 28°F , -2°C
Humidity: 70%
Barometer: 29.91 inHg , 1012.9 hPa
Clouds: Partly cloudy
Visibility: 10 miles , 16 km
Cloud details: Partly cloudy 6000 ft
2021/11/29 13:45 KMMU 291345Z 00000KT 10SM SCT060 03/M02 A2991
KHPN - White Plains, NY, USA
Distance from station: NE 28mi, 46km
Updated: 11/29/2021 8:56am
Mostly cloudy
Mostly cloudy
 Wind from NW
Wind: NW 12 mph , 19 km/h
Temperature: 37°F , 3°C
Wind Chill: 29°F , -2°C
Dew Point: 28°F , -2°C
Humidity: 70%
Barometer: 29.86 inHg , 1011.2 hPa
Clouds: Mostly cloudy
Visibility: 10 miles , 16 km
Cloud details: Few Clouds 3500 ft
Mostly cloudy 5500 ft
2021/11/29 13:56 KHPN 291356Z 32010KT 10SM FEW035 BKN055 03/M02 A2986 RMK AO2 SLP119 T00331017
 
KFRG - Farmingdale, NY, USA
Distance from station: E 32mi, 52km
Updated: 11/29/2021 8:53am
Few Clouds
Few Clouds
 Wind from NW
Wind: NW 9 mph , 15 km/h
Temperature: 39°F , 4°C
Wind Chill: 33°F , 1°C
Dew Point: 28°F , -2°C
Humidity: 65%
Barometer: 29.88 inHg , 1011.9 hPa
Clouds: Few Clouds
Visibility: 10 miles , 16 km
Cloud details: Few Clouds 5500 ft
2021/11/29 13:53 KFRG 291353Z AUTO 32008KT 10SM FEW055 04/M02 A2988 RMK AO2 SLP118 T00441022
KSMQ - Somerville, NJ, USA
Distance from station: WSW 34mi, 55km
Updated: 11/29/2021 8:53am
Clear
Clear
 
Temperature: 39°F , 4°C
Dew Point: 28°F , -2°C
Humidity: 65%
Barometer: 29.90 inHg , 1012.5 hPa
Clouds: Clear
Visibility: 10 miles , 16 km
2021/11/29 13:53 KSMQ 291353Z AUTO 10SM CLR 04/M02 A2990 RMK AO2 SLP127 T00391017
 
KBLM - Belmar/Farmdale, NJ, USA
Distance from station: S 40mi, 64km
Updated: 11/29/2021 8:56am
Few Clouds
Few Clouds
 Wind from W
Wind: W 10 mph , 17 km/h
Temperature: 37°F , 3°C
Wind Chill: 30°F , -1°C
Dew Point: 28°F , -2°C
Humidity: 70%
Barometer: 29.91 inHg , 1012.9 hPa
Clouds: Few Clouds
Visibility: 10 miles , 16 km
Cloud details: Few Clouds 11000 ft
2021/11/29 13:56 KBLM 291356Z AUTO 28009KT 10SM FEW110 03/M02 A2991 RMK AO2 SLP129 T00331017 PNO $
K12N - Andover, NJ, USA
Distance from station: WNW 41mi, 67km
Updated: 11/29/2021 8:54am

 Wind from varies
Wind: varies 3 mph , 6 km/h
Temperature: 36°F , 2°C
Dew Point: 30°F , -1°C
Humidity: 81%
Barometer: 29.90 inHg , 1012.5 hPa
2021/11/29 13:54 K12N 291354Z AUTO VRB03KT 02/M01 A2990 RMK AO1 SLP132 T00221006
 
KFWN - Sussex, NJ, USA
Distance from station: NW 45mi, 72km
Updated: 11/29/2021 2:53am
NOT Current
Mist, Mostly cloudy
Mist, Mostly cloudy
 Wind from calm
Wind: Calm
Temperature: 27°F , -3°C
Dew Point: 27°F , -3°C
Humidity: 100%
Barometer: 29.81 inHg , 1009.5 hPa
Summary: Mist
Clouds: Mostly cloudy
Visibility: 6 miles , 10 km
Cloud details: Mostly cloudy 10000 ft
2021/11/29 07:53 KFWN 290753Z AUTO 00000KT 6SM BR BKN100 M03/M03 A2981 RMK AO2 SLP098 T10281033 PWINO FZRANO PNO $
KISP - Islip, NY, USA
Distance from station: E 49mi, 79km
Updated: 11/29/2021 8:56am
Mostly cloudy
Mostly cloudy
 Wind from NNW
Wind: NNW 10 mph , 17 km/h
Temperature: 39°F , 4°C
Wind Chill: 32°F , 0°C
Dew Point: 32°F , 0°C
Humidity: 75%
Barometer: 29.86 inHg , 1011.2 hPa
Clouds: Mostly cloudy
Visibility: 10 miles , 16 km
Cloud details: Mostly cloudy 3800 ft
Mostly cloudy 5000 ft
Mostly cloudy 13000 ft
2021/11/29 13:56 KISP 291356Z 33009KT 10SM BKN038 BKN050 BKN130 04/00 A2986 RMK AO2 SLP113 T00390000